createdAt,value
2019-03-22T00:01:28.543Z,26.07
2019-03-22T00:04:17.236Z,28.30
2019-03-22T00:07:05.947Z,22.17
2019-03-22T00:09:54.980Z,27.20
2019-03-22T00:12:43.753Z,26.27
2019-03-22T00:15:32.470Z,28.63
2019-03-22T00:18:21.230Z,26.50
2019-03-22T00:21:09.936Z,25.33
2019-03-22T00:23:58.713Z,22.93
2019-03-22T00:26:47.360Z,21.23
2019-03-22T00:29:36.392Z,25.43
2019-03-22T00:32:25.029Z,28.67
2019-03-22T00:35:13.733Z,27.83
2019-03-22T00:38:02.474Z,29.10
2019-03-22T00:40:51.141Z,23.20
2019-03-22T00:43:39.758Z,25.30
2019-03-22T00:46:28.443Z,23.33
2019-03-22T00:49:17.083Z,27.90
2019-03-22T00:52:05.783Z,27.23
2019-03-22T00:54:54.447Z,30.87
2019-03-22T00:57:43.477Z,35.67
2019-03-22T01:00:31.302Z,25.23
2019-03-22T01:03:20.012Z,23.87
2019-03-22T01:06:08.761Z,28.73
2019-03-22T01:08:39.429Z,30.13
2019-03-22T01:11:28.180Z,28.73
2019-03-22T01:14:16.907Z,38.37
2019-03-22T01:17:05.808Z,35.53
2019-03-22T01:19:55.010Z,34.67
2019-03-22T01:22:36.078Z,27.60
2019-03-22T01:25:17.453Z,26.00
2019-03-22T01:27:58.906Z,32.50
2019-03-22T01:30:28.748Z,29.33
2019-03-22T01:33:17.467Z,30.30
2019-03-22T01:36:06.283Z,35.03
2019-03-22T01:38:55.519Z,31.07
2019-03-22T01:41:44.211Z,35.63
2019-03-22T01:44:32.942Z,36.17
2019-03-22T01:47:22.405Z,36.63
2019-03-22T01:50:10.220Z,36.33
2019-03-22T01:52:59.015Z,26.33
2019-03-22T01:55:47.949Z,34.23
2019-03-22T01:58:36.681Z,31.97
2019-03-22T02:01:25.370Z,37.80
2019-03-22T02:04:13.213Z,32.70
2019-03-22T02:07:01.811Z,32.90
2019-03-22T02:09:50.450Z,30.97
2019-03-22T02:12:39.175Z,27.10
2019-03-22T02:15:27.832Z,31.13
2019-03-22T02:18:15.723Z,23.17
2019-03-22T02:21:04.365Z,25.77
2019-03-22T02:23:45.147Z,28.77
2019-03-22T02:26:26.256Z,27.07
2019-03-22T02:29:07.710Z,32.47
2019-03-22T02:31:48.552Z,23.63
2019-03-22T02:34:29.133Z,26.97
2019-03-22T02:37:11.864Z,23.77
2019-03-22T02:39:53.107Z,28.93
2019-03-22T02:42:33.812Z,35.47
2019-03-22T02:45:14.676Z,35.87
2019-03-22T02:47:56.213Z,32.80
2019-03-22T02:50:37.470Z,30.57
2019-03-22T02:53:18.941Z,29.33
2019-03-22T02:55:59.832Z,34.57
2019-03-22T02:58:40.789Z,33.90
2019-03-22T03:01:22.200Z,33.73
2019-03-22T03:04:03.547Z,31.90
2019-03-22T03:06:45.008Z,38.30
2019-03-22T03:09:29.281Z,29.67
2019-03-22T03:12:10.151Z,30.97
2019-03-22T03:14:50.809Z,30.27
2019-03-22T03:17:31.922Z,32.17
2019-03-22T03:20:01.867Z,34.07
2019-03-22T03:22:42.902Z,27.97
2019-03-22T03:25:23.971Z,29.73
2019-03-22T03:28:05.382Z,34.50
2019-03-22T03:30:46.518Z,27.10
2019-03-22T03:33:27.662Z,23.80
2019-03-22T03:36:08.531Z,33.10
2019-03-22T03:38:49.726Z,36.60
2019-03-22T03:41:31.017Z,37.13
2019-03-22T03:44:12.305Z,34.10
2019-03-22T03:46:53.307Z,33.10
2019-03-22T03:49:34.689Z,32.67
2019-03-22T03:52:16.294Z,30.90
2019-03-22T03:54:57.693Z,43.50
2019-03-22T03:57:38.844Z,35.90
2019-03-22T04:00:20.312Z,32.60
2019-03-22T04:03:01.438Z,33.27
2019-03-22T04:05:42.536Z,33.67
2019-03-22T04:08:23.865Z,30.63
2019-03-22T04:11:04.608Z,35.97
2019-03-22T04:13:45.449Z,31.73
2019-03-22T04:16:26.955Z,32.53
2019-03-22T04:19:08.248Z,34.43
2019-03-22T04:21:49.359Z,38.57
2019-03-22T04:24:30.730Z,33.97
2019-03-22T04:27:12.170Z,31.20
2019-03-22T04:29:53.611Z,32.03
2019-03-22T04:32:34.931Z,34.40
2019-03-22T04:35:16.197Z,29.87
2019-03-22T04:37:57.866Z,31.67
2019-03-22T04:40:39.088Z,26.77
2019-03-22T04:43:20.131Z,29.23
2019-03-22T04:46:01.043Z,29.50
2019-03-22T04:48:53.044Z,34.30
2019-03-22T04:52:02.074Z,33.27
2019-03-22T04:58:19.057Z,29.60
2019-03-22T05:01:28.342Z,23.83
2019-03-22T05:04:37.395Z,26.10
2019-03-22T05:07:26.191Z,38.20
2019-03-22T05:10:15.418Z,30.17
2019-03-22T05:13:04.349Z,25.50
2019-03-22T05:16:13.479Z,26.67
2019-03-22T05:21:54.618Z,24.07
2019-03-22T05:24:35.375Z,24.53
2019-03-22T05:27:16.001Z,20.00
2019-03-22T05:29:56.900Z,21.67
2019-03-22T05:32:38.028Z,21.53
2019-03-22T05:35:19.258Z,21.07
2019-03-22T05:38:00.738Z,22.50
2019-03-22T05:40:41.715Z,22.83
2019-03-22T05:43:22.971Z,20.33
2019-03-22T05:46:03.861Z,15.23
2019-03-22T05:48:45.090Z,15.53
2019-03-22T05:51:26.386Z,18.47
2019-03-22T05:54:07.871Z,17.80
2019-03-22T05:56:49.085Z,20.90
2019-03-22T05:59:41.604Z,18.53
2019-03-22T06:02:13.584Z,16.77
2019-03-22T06:04:54.283Z,12.13
2019-03-22T06:07:37.097Z,14.10
2019-03-22T06:10:18.262Z,16.47
2019-03-22T06:12:59.678Z,11.27
2019-03-22T06:15:40.942Z,9.90
2019-03-22T06:18:22.064Z,8.30
2019-03-22T06:21:03.310Z,11.17
2019-03-22T06:23:44.611Z,10.20
2019-03-22T06:26:28.557Z,17.97
2019-03-22T06:29:09.733Z,12.33
2019-03-22T06:31:51.058Z,20.73
2019-03-22T06:34:31.823Z,16.33
2019-03-22T06:37:13.194Z,12.70
2019-03-22T06:39:54.466Z,24.30
2019-03-22T06:42:35.547Z,15.00
2019-03-22T06:45:15.463Z,12.43
2019-03-22T06:48:04.398Z,18.00
2019-03-22T06:50:53.234Z,13.77
2019-03-22T06:53:41.931Z,24.83
2019-03-22T06:56:30.678Z,19.43
2019-03-22T06:59:19.391Z,12.80
2019-03-22T07:02:08.085Z,16.50
2019-03-22T07:04:56.752Z,11.80
2019-03-22T07:07:45.556Z,9.37
2019-03-22T07:10:34.210Z,18.97
2019-03-22T07:13:22.914Z,8.07
2019-03-22T07:16:11.640Z,9.77
2019-03-22T07:19:00.784Z,10.00
2019-03-22T07:21:49.533Z,8.93
2019-03-22T07:24:38.279Z,19.23
2019-03-22T07:27:26.958Z,12.40
2019-03-22T07:30:19.054Z,18.30
2019-03-22T07:33:06.237Z,21.53
2019-03-22T07:35:54.885Z,25.47
2019-03-22T07:38:43.579Z,13.70
2019-03-22T07:41:32.290Z,17.73
2019-03-22T07:44:21.287Z,20.73
2019-03-22T07:47:10.564Z,19.07
2019-03-22T07:49:59.892Z,36.40
2019-03-22T07:52:48.580Z,22.47
2019-03-22T07:58:46.657Z,17.27
2019-03-22T08:01:35.338Z,26.33
2019-03-22T08:04:24.050Z,18.23
2019-03-22T08:07:12.693Z,12.70
2019-03-22T08:10:01.585Z,13.43
2019-03-22T08:12:50.394Z,11.17
2019-03-22T08:15:39.355Z,11.33
2019-03-22T08:18:28.148Z,12.00
2019-03-22T08:21:16.945Z,11.97
2019-03-22T08:23:58.038Z,10.00
2019-03-22T08:26:39.498Z,8.33
2019-03-22T08:29:20.514Z,13.40
2019-03-22T08:32:01.623Z,10.40
2019-03-22T08:34:42.907Z,11.50
2019-03-22T08:37:24.046Z,9.17
2019-03-22T08:40:05.270Z,7.47
2019-03-22T08:42:46.623Z,8.87
2019-03-22T08:45:27.727Z,9.83
2019-03-22T08:48:09.164Z,10.03
2019-03-22T08:50:50.093Z,11.33
2019-03-22T08:53:31.633Z,8.40
2019-03-22T08:56:12.741Z,12.23
2019-03-22T08:58:53.534Z,9.27
2019-03-22T09:01:34.614Z,10.70
2019-03-22T09:04:15.535Z,8.30
2019-03-22T09:06:58.901Z,7.83
2019-03-22T09:09:41.600Z,5.73
2019-03-22T09:12:10.693Z,8.93
2019-03-22T09:14:59.351Z,8.53
2019-03-22T09:17:40.193Z,8.07
2019-03-22T09:20:21.007Z,8.30
2019-03-22T09:23:02.219Z,23.33
2019-03-22T09:25:43.802Z,7.57
2019-03-22T09:28:25.093Z,11.20
2019-03-22T09:31:13.071Z,8.17
2019-03-22T09:33:48.470Z,10.10
2019-03-22T09:36:29.733Z,9.17
2019-03-22T09:39:11.178Z,11.23
2019-03-22T09:41:52.443Z,11.47
2019-03-22T09:44:42.816Z,14.57
2019-03-22T09:47:16.651Z,10.40
2019-03-22T09:49:57.826Z,7.43
2019-03-22T09:52:39.150Z,11.23
2019-03-22T09:55:20.455Z,11.47
2019-03-22T09:58:01.657Z,11.20
2019-03-22T10:00:42.904Z,10.40
2019-03-22T10:03:23.998Z,16.30
2019-03-22T10:06:05.058Z,10.23
2019-03-22T10:08:46.004Z,9.97
2019-03-22T10:11:27.300Z,8.80
2019-03-22T10:14:08.452Z,8.70
2019-03-22T10:16:49.629Z,11.80
2019-03-22T10:19:30.840Z,9.60
2019-03-22T10:22:11.703Z,8.47
2019-03-22T10:24:52.563Z,9.40
2019-03-22T10:27:33.851Z,9.30
2019-03-22T10:30:14.539Z,10.67
2019-03-22T10:32:55.604Z,9.03
2019-03-22T10:35:36.316Z,11.23
2019-03-22T10:38:30.673Z,11.00
2019-03-22T10:41:00.076Z,9.30
2019-03-22T10:43:41.099Z,8.70
2019-03-22T10:46:20.816Z,7.50
2019-03-22T10:49:09.558Z,10.27
2019-03-22T10:51:58.375Z,7.73
2019-03-22T10:54:48.647Z,8.33
2019-03-22T10:57:40.093Z,7.77
2019-03-22T11:00:27.749Z,8.30
2019-03-22T11:03:16.461Z,8.60
2019-03-22T11:06:05.194Z,8.17
2019-03-22T11:08:53.858Z,5.10
2019-03-22T11:11:42.501Z,6.63
2019-03-22T11:14:23.567Z,7.17
2019-03-22T11:17:04.226Z,8.83
2019-03-22T11:19:45.784Z,8.13
2019-03-22T11:22:26.731Z,7.83
2019-03-22T11:25:08.352Z,5.00
2019-03-22T11:27:49.782Z,11.07
2019-03-22T11:30:30.331Z,7.23
2019-03-22T11:33:11.420Z,5.93
2019-03-22T11:35:52.689Z,4.53
2019-03-22T11:38:33.716Z,4.47
2019-03-22T11:41:15.017Z,5.83
2019-03-22T11:43:56.524Z,5.20
2019-03-22T11:46:37.983Z,5.37
2019-03-22T11:49:19.447Z,4.20
2019-03-22T11:52:00.815Z,5.33
2019-03-22T11:54:41.874Z,6.40
2019-03-22T11:57:22.755Z,6.90
2019-03-22T12:00:03.721Z,6.63
2019-03-22T12:02:44.685Z,4.27
2019-03-22T12:05:25.735Z,4.33
2019-03-22T12:08:06.812Z,3.90
2019-03-22T12:10:48.129Z,4.63
2019-03-22T12:13:28.784Z,3.90
2019-03-22T12:16:10.037Z,3.90
2019-03-22T12:18:51.208Z,2.90
2019-03-22T12:21:32.259Z,2.77
2019-03-22T12:24:13.837Z,8.10
2019-03-22T12:26:57.581Z,6.00
2019-03-22T12:29:39.067Z,4.40
2019-03-22T12:32:20.116Z,2.37
2019-03-22T12:35:01.297Z,3.10
2019-03-22T12:37:42.230Z,4.17
2019-03-22T12:40:23.634Z,2.97
2019-03-22T12:42:54.122Z,3.40
2019-03-22T12:45:43.124Z,3.27
2019-03-22T12:48:31.784Z,2.03
2019-03-22T12:51:20.424Z,4.03
2019-03-22T12:53:50.474Z,4.33
2019-03-22T12:56:39.167Z,3.07
2019-03-22T12:59:28.155Z,4.50
2019-03-22T13:01:58.510Z,2.30
2019-03-22T13:04:47.192Z,3.77
2019-03-22T13:07:36.142Z,5.00
2019-03-22T13:10:24.930Z,4.50
2019-03-22T13:13:06.092Z,3.70
2019-03-22T13:15:47.222Z,4.10
2019-03-22T13:18:28.496Z,4.27
2019-03-22T13:21:09.397Z,3.53
2019-03-22T13:23:51.529Z,4.20
2019-03-22T13:26:32.355Z,2.60
2019-03-22T13:29:13.633Z,3.03
2019-03-22T13:31:54.505Z,3.10
2019-03-22T13:34:35.886Z,3.20
2019-03-22T13:37:16.679Z,3.17
2019-03-22T13:39:58.481Z,6.10
2019-03-22T13:42:39.149Z,2.53
2019-03-22T13:45:20.358Z,1.53
2019-03-22T13:48:01.600Z,3.20
2019-03-22T13:50:43.301Z,3.60
2019-03-22T13:53:23.141Z,3.47
2019-03-22T13:56:44.836Z,3.87
2019-03-22T13:59:33.733Z,4.80
2019-03-22T14:02:23.071Z,4.03
2019-03-22T14:05:13.338Z,5.20
2019-03-22T14:08:02.190Z,4.93
2019-03-22T14:10:51.064Z,2.10
2019-03-22T14:13:31.661Z,3.10
2019-03-22T14:16:13.114Z,5.43
2019-03-22T14:18:54.320Z,2.77
2019-03-22T14:21:35.729Z,4.17
2019-03-22T14:24:17.168Z,3.13
2019-03-22T14:26:58.418Z,2.70
2019-03-22T14:29:39.850Z,5.37
2019-03-22T14:32:20.775Z,3.87
2019-03-22T14:35:01.966Z,4.10
2019-03-22T14:37:43.348Z,3.07
2019-03-22T14:40:26.995Z,3.33
2019-03-22T14:43:08.205Z,3.70
2019-03-22T14:45:48.764Z,2.60
2019-03-22T14:48:29.458Z,7.27
2019-03-22T14:51:10.180Z,2.20
2019-03-22T14:53:51.661Z,4.37
2019-03-22T14:56:32.890Z,2.60
2019-03-22T14:59:14.173Z,2.27
2019-03-22T15:01:55.231Z,5.60
2019-03-22T15:04:36.343Z,2.83
2019-03-22T15:07:20.062Z,3.10
2019-03-22T15:10:00.301Z,2.10
2019-03-22T15:12:40.906Z,4.10
2019-03-22T15:15:32.057Z,3.00
2019-03-22T15:18:25.681Z,5.73
2019-03-22T15:21:31.983Z,2.03
2019-03-22T15:24:31.953Z,2.90
2019-03-22T15:27:34.389Z,2.97
2019-03-22T15:30:24.640Z,3.57
2019-03-22T15:33:34.563Z,6.53
2019-03-22T15:36:41.663Z,2.73
2019-03-22T15:39:49.313Z,2.50
2019-03-22T15:42:58.532Z,3.77
2019-03-22T15:45:47.406Z,3.73
2019-03-22T15:48:36.085Z,4.03
2019-03-22T15:51:24.760Z,5.93
2019-03-22T15:54:13.503Z,4.07
2019-03-22T15:57:16.650Z,3.97
2019-03-22T15:59:52.866Z,6.70
2019-03-22T16:02:41.578Z,8.20
2019-03-22T16:05:30.261Z,7.70
2019-03-22T16:08:20.706Z,9.10
2019-03-22T16:11:09.607Z,4.37
2019-03-22T16:13:58.294Z,4.37
2019-03-22T16:16:39.421Z,7.73
2019-03-22T16:19:20.641Z,5.37
2019-03-22T16:22:05.385Z,4.80
2019-03-22T16:24:46.686Z,9.07
2019-03-22T16:27:27.848Z,4.57
2019-03-22T16:30:09.117Z,3.73
2019-03-22T16:32:54.761Z,5.53
2019-03-22T16:38:23.998Z,3.70
2019-03-22T16:41:05.029Z,6.50
2019-03-22T16:43:46.489Z,10.47
2019-03-22T16:46:27.463Z,8.33
2019-03-22T16:49:26.153Z,8.37
2019-03-22T16:51:56.088Z,4.20
2019-03-22T16:54:37.725Z,3.70
2019-03-22T16:57:22.275Z,4.10
2019-03-22T17:00:03.588Z,3.27
2019-03-22T17:02:44.953Z,6.40
2019-03-22T17:05:28.751Z,2.90
2019-03-22T17:08:16.426Z,4.33
2019-03-22T17:10:57.069Z,5.47
2019-03-22T17:14:06.855Z,2.93
2019-03-22T17:19:47.951Z,5.07
2019-03-22T17:22:14.189Z,4.70
2019-03-22T17:24:55.129Z,8.17
2019-03-22T17:27:37.742Z,6.30
2019-03-22T17:30:29.894Z,3.57
2019-03-22T17:33:14.163Z,5.90
2019-03-22T17:36:13.119Z,4.20
2019-03-22T17:38:43.734Z,3.60
2019-03-22T17:41:24.743Z,5.73
2019-03-22T17:44:08.956Z,7.37
2019-03-22T17:46:50.246Z,4.77
2019-03-22T17:49:36.292Z,5.30
2019-03-22T17:52:17.156Z,4.03
2019-03-22T17:54:58.750Z,4.97
2019-03-22T17:57:39.883Z,4.23
2019-03-22T18:00:23.418Z,3.63
2019-03-22T18:03:04.582Z,4.57
2019-03-22T18:05:45.832Z,6.47
2019-03-22T18:08:37.236Z,7.87
2019-03-22T18:11:18.704Z,9.57
2019-03-22T18:14:06.673Z,7.53
2019-03-22T18:16:47.470Z,5.40
2019-03-22T18:19:28.092Z,5.60
2019-03-22T18:25:08.086Z,4.87
2019-03-22T18:27:49.306Z,6.97
2019-03-22T18:30:30.579Z,4.73
2019-03-22T18:33:12.223Z,5.23
2019-03-22T18:35:53.420Z,5.63
2019-03-22T18:38:23.434Z,5.90
2019-03-22T18:41:12.209Z,5.03
2019-03-22T18:44:00.785Z,8.07
2019-03-22T18:46:49.465Z,5.93
2019-03-22T18:49:38.152Z,7.10
2019-03-22T18:52:26.990Z,7.20
2019-03-22T18:54:56.962Z,8.73
2019-03-22T18:57:45.662Z,10.47
2019-03-22T19:00:34.290Z,8.27
2019-03-22T19:03:23.060Z,11.47
2019-03-22T19:06:12.206Z,8.17
2019-03-22T19:09:00.961Z,8.67
2019-03-22T19:11:49.712Z,9.10
2019-03-22T19:14:38.550Z,12.60
2019-03-22T19:17:21.691Z,8.60
2019-03-22T19:20:02.337Z,8.20
2019-03-22T19:22:46.628Z,9.90
2019-03-22T19:25:27.739Z,14.60
2019-03-22T19:28:08.796Z,12.80
2019-03-22T19:30:52.133Z,9.50
2019-03-22T19:33:33.563Z,16.13
2019-03-22T19:36:14.491Z,10.07
2019-03-22T19:38:57.314Z,11.43
2019-03-22T19:41:38.216Z,8.77
2019-03-22T19:44:19.552Z,10.20
2019-03-22T19:47:00.624Z,15.37
2019-03-22T19:49:41.926Z,11.17
2019-03-22T19:52:22.560Z,9.40
2019-03-22T19:55:04.111Z,11.37
2019-03-22T19:57:49.852Z,10.20
2019-03-22T20:00:31.323Z,12.20
2019-03-22T20:03:12.290Z,9.50
2019-03-22T20:05:55.610Z,9.40
2019-03-22T20:08:41.254Z,7.97
2019-03-22T20:11:22.564Z,10.43
2019-03-22T20:14:04.113Z,9.40
2019-03-22T20:16:45.784Z,10.83
2019-03-22T20:19:26.718Z,11.07
2019-03-22T20:21:59.967Z,11.10
2019-03-22T20:24:48.777Z,21.67
2019-03-22T20:27:39.716Z,14.20
2019-03-22T20:30:28.810Z,14.40
2019-03-22T20:33:19.936Z,11.77
2019-03-22T20:36:17.001Z,8.63
2019-03-22T20:39:21.223Z,8.13
2019-03-22T20:41:57.194Z,8.37
2019-03-22T20:45:05.305Z,7.00
2019-03-22T20:47:54.055Z,9.90
2019-03-22T20:50:43.036Z,10.93
2019-03-22T20:53:31.778Z,15.10
2019-03-22T20:56:20.526Z,7.70
2019-03-22T20:59:09.214Z,12.70
2019-03-22T21:01:58.247Z,12.40
2019-03-22T21:04:47.007Z,11.43
2019-03-22T21:07:35.886Z,13.60
2019-03-22T21:10:24.683Z,11.10
2019-03-22T21:13:13.673Z,9.17
2019-03-22T21:15:54.823Z,7.60
2019-03-22T21:18:24.835Z,10.73
2019-03-22T21:21:13.733Z,11.03
2019-03-22T21:24:02.504Z,12.30
2019-03-22T21:26:51.248Z,8.33
2019-03-22T21:29:44.334Z,13.60
2019-03-22T21:32:11.582Z,12.30
2019-03-22T21:35:21.855Z,11.10
2019-03-22T21:37:50.962Z,11.30
2019-03-22T21:41:00.200Z,9.73
2019-03-22T21:43:48.966Z,13.23
2019-03-22T21:46:37.801Z,11.00
2019-03-22T21:49:26.477Z,17.13
2019-03-22T21:52:16.213Z,10.50
2019-03-22T21:55:04.944Z,14.17
2019-03-22T21:57:54.083Z,14.43
2019-03-22T22:00:42.880Z,17.87
2019-03-22T22:03:31.657Z,18.87
2019-03-22T22:06:20.527Z,12.73
2019-03-22T22:08:50.531Z,15.00
2019-03-22T22:11:31.552Z,13.23
2019-03-22T22:14:13.010Z,17.33
2019-03-22T22:16:54.127Z,15.87
2019-03-22T22:19:35.605Z,19.40
2019-03-22T22:22:16.960Z,11.50
2019-03-22T22:25:00.330Z,14.97
2019-03-22T22:27:41.235Z,18.03
2019-03-22T22:30:22.262Z,20.23
2019-03-22T22:33:03.598Z,21.77
2019-03-22T22:38:57.590Z,19.43
2019-03-22T22:41:38.464Z,20.27
2019-03-22T22:44:19.815Z,19.57
2019-03-22T22:47:00.954Z,15.50
2019-03-22T22:49:48.338Z,17.30
2019-03-22T22:52:28.194Z,12.47
2019-03-22T22:55:09.448Z,14.80
2019-03-22T22:57:50.789Z,17.13
2019-03-22T23:00:31.720Z,19.40
2019-03-22T23:03:12.895Z,18.20
2019-03-22T23:05:53.872Z,15.57
2019-03-22T23:08:35.366Z,19.37
2019-03-22T23:11:16.672Z,20.83
2019-03-22T23:13:46.642Z,23.10
2019-03-22T23:16:35.387Z,18.70
2019-03-22T23:19:24.286Z,21.17
2019-03-22T23:22:13.029Z,18.23
2019-03-22T23:25:01.891Z,19.40
2019-03-22T23:27:50.595Z,14.40
2019-03-22T23:30:39.296Z,21.07
2019-03-22T23:33:28.194Z,21.97
2019-03-22T23:36:20.504Z,20.70
2019-03-22T23:39:08.084Z,18.80
2019-03-22T23:41:56.807Z,18.40
2019-03-22T23:44:45.625Z,21.30
2019-03-22T23:47:34.328Z,17.23
2019-03-22T23:50:22.985Z,21.30
2019-03-22T23:53:11.647Z,23.03
2019-03-22T23:56:00.812Z,23.30
2019-03-22T23:58:49.514Z,23.40
